sensor_id;sensor_type;location;lat;lon;timestamp;P1;durP1;ratioP1;P2;durP2;ratioP2
16878;SDS011;8556;52.218;9.884;2023-08-06T00:01:59;7.15;;;3.95;;
16878;SDS011;8556;52.218;9.884;2023-08-06T00:04:26;8.20;;;4.13;;
16878;SDS011;8556;52.218;9.884;2023-08-06T00:06:52;6.65;;;4.57;;
16878;SDS011;8556;52.218;9.884;2023-08-06T00:09:19;10.32;;;4.35;;
16878;SDS011;8556;52.218;9.884;2023-08-06T00:11:47;8.15;;;3.65;;
16878;SDS011;8556;52.218;9.884;2023-08-06T00:14:14;10.73;;;4.60;;
16878;SDS011;8556;52.218;9.884;2023-08-06T00:16:42;18.40;;;4.78;;
16878;SDS011;8556;52.218;9.884;2023-08-06T00:19:10;14.20;;;4.32;;
16878;SDS011;8556;52.218;9.884;2023-08-06T00:21:37;12.05;;;4.25;;
16878;SDS011;8556;52.218;9.884;2023-08-06T00:24:05;11.48;;;4.20;;
16878;SDS011;8556;52.218;9.884;2023-08-06T00:26:33;10.35;;;3.90;;
16878;SDS011;8556;52.218;9.884;2023-08-06T00:29:02;9.15;;;3.47;;
16878;SDS011;8556;52.218;9.884;2023-08-06T00:31:28;11.95;;;3.95;;
16878;SDS011;8556;52.218;9.884;2023-08-06T00:33:55;10.63;;;4.13;;
16878;SDS011;8556;52.218;9.884;2023-08-06T00:36:22;17.05;;;4.40;;
16878;SDS011;8556;52.218;9.884;2023-08-06T00:38:49;7.72;;;3.92;;
16878;SDS011;8556;52.218;9.884;2023-08-06T00:41:15;6.85;;;3.97;;
16878;SDS011;8556;52.218;9.884;2023-08-06T00:43:42;7.72;;;3.97;;
16878;SDS011;8556;52.218;9.884;2023-08-06T00:46:10;6.15;;;3.60;;
16878;SDS011;8556;52.218;9.884;2023-08-06T00:48:37;6.93;;;4.93;;
16878;SDS011;8556;52.218;9.884;2023-08-06T00:51:05;5.05;;;3.40;;
16878;SDS011;8556;52.218;9.884;2023-08-06T00:53:32;6.45;;;4.03;;
16878;SDS011;8556;52.218;9.884;2023-08-06T00:55:59;5.32;;;3.50;;
16878;SDS011;8556;52.218;9.884;2023-08-06T00:58:26;7.18;;;3.55;;
16878;SDS011;8556;52.218;9.884;2023-08-06T01:00:53;4.32;;;3.50;;
16878;SDS011;8556;52.218;9.884;2023-08-06T01:03:22;12.90;;;3.75;;
16878;SDS011;8556;52.218;9.884;2023-08-06T01:05:48;10.02;;;4.05;;
16878;SDS011;8556;52.218;9.884;2023-08-06T01:08:19;9.35;;;3.55;;
16878;SDS011;8556;52.218;9.884;2023-08-06T01:10:57;11.85;;;4.40;;
16878;SDS011;8556;52.218;9.884;2023-08-06T01:13:32;7.90;;;3.63;;
16878;SDS011;8556;52.218;9.884;2023-08-06T01:16:04;11.48;;;4.45;;
16878;SDS011;8556;52.218;9.884;2023-08-06T01:18:34;8.43;;;4.15;;
16878;SDS011;8556;52.218;9.884;2023-08-06T01:21:03;11.07;;;4.22;;
16878;SDS011;8556;52.218;9.884;2023-08-06T01:23:30;9.18;;;4.82;;
16878;SDS011;8556;52.218;9.884;2023-08-06T01:26:00;13.10;;;4.68;;
16878;SDS011;8556;52.218;9.884;2023-08-06T01:28:47;10.70;;;4.72;;
16878;SDS011;8556;52.218;9.884;2023-08-06T01:31:21;8.63;;;4.00;;
16878;SDS011;8556;52.218;9.884;2023-08-06T01:33:52;15.55;;;4.53;;
16878;SDS011;8556;52.218;9.884;2023-08-06T01:36:24;11.43;;;3.85;;
16878;SDS011;8556;52.218;9.884;2023-08-06T01:38:51;15.88;;;4.82;;
16878;SDS011;8556;52.218;9.884;2023-08-06T01:41:19;13.57;;;4.20;;
16878;SDS011;8556;52.218;9.884;2023-08-06T01:43:46;8.68;;;3.95;;
16878;SDS011;8556;52.218;9.884;2023-08-06T01:46:12;15.80;;;4.32;;
16878;SDS011;8556;52.218;9.884;2023-08-06T01:48:39;10.05;;;3.72;;
16878;SDS011;8556;52.218;9.884;2023-08-06T01:51:06;6.90;;;3.70;;
16878;SDS011;8556;52.218;9.884;2023-08-06T01:53:34;11.40;;;3.45;;
16878;SDS011;8556;52.218;9.884;2023-08-06T01:56:01;8.23;;;3.30;;
16878;SDS011;8556;52.218;9.884;2023-08-06T01:58:28;5.47;;;3.50;;
16878;SDS011;8556;52.218;9.884;2023-08-06T02:00:55;9.23;;;3.45;;
16878;SDS011;8556;52.218;9.884;2023-08-06T02:03:22;8.43;;;3.40;;
16878;SDS011;8556;52.218;9.884;2023-08-06T02:05:49;7.68;;;3.33;;
16878;SDS011;8556;52.218;9.884;2023-08-06T02:08:16;9.75;;;3.70;;
16878;SDS011;8556;52.218;9.884;2023-08-06T02:10:44;10.27;;;3.90;;
16878;SDS011;8556;52.218;9.884;2023-08-06T02:13:11;17.67;;;3.70;;
16878;SDS011;8556;52.218;9.884;2023-08-06T02:15:41;7.03;;;3.72;;
16878;SDS011;8556;52.218;9.884;2023-08-06T02:18:09;11.48;;;3.78;;
16878;SDS011;8556;52.218;9.884;2023-08-06T02:20:36;20.67;;;4.55;;
16878;SDS011;8556;52.218;9.884;2023-08-06T02:23:03;8.80;;;3.92;;
16878;SDS011;8556;52.218;9.884;2023-08-06T02:25:29;12.27;;;4.18;;
16878;SDS011;8556;52.218;9.884;2023-08-06T02:27:58;9.70;;;3.75;;
16878;SDS011;8556;52.218;9.884;2023-08-06T02:30:24;8.30;;;3.97;;
16878;SDS011;8556;52.218;9.884;2023-08-06T02:32:51;8.25;;;4.05;;
16878;SDS011;8556;52.218;9.884;2023-08-06T02:35:18;6.03;;;3.97;;
16878;SDS011;8556;52.218;9.884;2023-08-06T02:37:45;6.63;;;4.10;;
16878;SDS011;8556;52.218;9.884;2023-08-06T02:40:12;7.35;;;3.97;;
16878;SDS011;8556;52.218;9.884;2023-08-06T02:42:39;8.23;;;4.05;;
16878;SDS011;8556;52.218;9.884;2023-08-06T02:45:08;6.35;;;4.05;;
16878;SDS011;8556;52.218;9.884;2023-08-06T02:47:35;11.20;;;4.03;;
16878;SDS011;8556;52.218;9.884;2023-08-06T02:50:02;9.48;;;3.80;;
16878;SDS011;8556;52.218;9.884;2023-08-06T02:52:28;11.65;;;5.07;;
16878;SDS011;8556;52.218;9.884;2023-08-06T02:54:55;12.55;;;4.03;;
16878;SDS011;8556;52.218;9.884;2023-08-06T02:57:24;12.57;;;3.92;;
16878;SDS011;8556;52.218;9.884;2023-08-06T02:59:51;10.73;;;3.88;;
16878;SDS011;8556;52.218;9.884;2023-08-06T03:02:19;10.18;;;3.75;;
16878;SDS011;8556;52.218;9.884;2023-08-06T03:04:46;8.85;;;4.18;;
16878;SDS011;8556;52.218;9.884;2023-08-06T03:07:13;7.40;;;3.38;;
16878;SDS011;8556;52.218;9.884;2023-08-06T03:09:40;10.38;;;3.88;;
16878;SDS011;8556;52.218;9.884;2023-08-06T03:12:07;6.03;;;4.10;;
16878;SDS011;8556;52.218;9.884;2023-08-06T03:14:34;8.75;;;3.95;;
16878;SDS011;8556;52.218;9.884;2023-08-06T03:17:01;10.68;;;4.22;;
16878;SDS011;8556;52.218;9.884;2023-08-06T03:19:29;7.25;;;3.70;;
16878;SDS011;8556;52.218;9.884;2023-08-06T03:21:56;5.53;;;3.60;;
16878;SDS011;8556;52.218;9.884;2023-08-06T03:24:23;9.15;;;4.20;;
16878;SDS011;8556;52.218;9.884;2023-08-06T03:26:50;6.00;;;4.13;;
16878;SDS011;8556;52.218;9.884;2023-08-06T03:29:17;6.70;;;3.78;;
16878;SDS011;8556;52.218;9.884;2023-08-06T03:31:43;5.55;;;4.05;;
16878;SDS011;8556;52.218;9.884;2023-08-06T03:34:10;8.90;;;3.92;;
16878;SDS011;8556;52.218;9.884;2023-08-06T03:36:39;11.18;;;4.70;;
16878;SDS011;8556;52.218;9.884;2023-08-06T03:39:06;14.23;;;4.10;;
16878;SDS011;8556;52.218;9.884;2023-08-06T03:41:32;7.47;;;4.25;;
16878;SDS011;8556;52.218;9.884;2023-08-06T03:43:59;6.03;;;4.13;;
16878;SDS011;8556;52.218;9.884;2023-08-06T03:46:28;8.68;;;3.97;;
16878;SDS011;8556;52.218;9.884;2023-08-06T03:48:57;9.52;;;3.92;;
16878;SDS011;8556;52.218;9.884;2023-08-06T03:51:24;12.70;;;4.22;;
16878;SDS011;8556;52.218;9.884;2023-08-06T03:53:52;11.88;;;4.45;;
16878;SDS011;8556;52.218;9.884;2023-08-06T03:56:19;6.97;;;3.78;;
16878;SDS011;8556;52.218;9.884;2023-08-06T03:58:46;7.60;;;4.15;;
16878;SDS011;8556;52.218;9.884;2023-08-06T04:01:13;5.93;;;4.07;;
16878;SDS011;8556;52.218;9.884;2023-08-06T04:03:39;7.75;;;4.28;;
16878;SDS011;8556;52.218;9.884;2023-08-06T04:06:06;9.63;;;4.38;;
16878;SDS011;8556;52.218;9.884;2023-08-06T04:08:33;6.82;;;3.33;;
16878;SDS011;8556;52.218;9.884;2023-08-06T04:11:02;4.85;;;3.65;;
16878;SDS011;8556;52.218;9.884;2023-08-06T04:13:28;11.13;;;3.95;;
16878;SDS011;8556;52.218;9.884;2023-08-06T04:15:55;8.70;;;3.85;;
16878;SDS011;8556;52.218;9.884;2023-08-06T04:18:27;11.38;;;3.83;;
16878;SDS011;8556;52.218;9.884;2023-08-06T04:20:54;9.05;;;4.10;;
16878;SDS011;8556;52.218;9.884;2023-08-06T04:23:22;11.00;;;4.35;;
16878;SDS011;8556;52.218;9.884;2023-08-06T04:25:49;12.80;;;4.95;;
16878;SDS011;8556;52.218;9.884;2023-08-06T04:28:17;10.10;;;5.05;;
16878;SDS011;8556;52.218;9.884;2023-08-06T04:30:44;9.05;;;4.68;;
16878;SDS011;8556;52.218;9.884;2023-08-06T04:33:10;12.25;;;4.57;;
16878;SDS011;8556;52.218;9.884;2023-08-06T04:35:37;9.43;;;4.75;;
16878;SDS011;8556;52.218;9.884;2023-08-06T04:38:04;8.70;;;4.30;;
16878;SDS011;8556;52.218;9.884;2023-08-06T04:40:32;7.55;;;4.45;;
16878;SDS011;8556;52.218;9.884;2023-08-06T04:42:59;11.52;;;4.55;;
16878;SDS011;8556;52.218;9.884;2023-08-06T04:45:28;9.93;;;4.82;;
16878;SDS011;8556;52.218;9.884;2023-08-06T04:47:54;7.47;;;4.50;;
16878;SDS011;8556;52.218;9.884;2023-08-06T04:50:21;12.18;;;4.35;;
16878;SDS011;8556;52.218;9.884;2023-08-06T04:52:48;10.50;;;4.95;;
16878;SDS011;8556;52.218;9.884;2023-08-06T04:55:15;9.48;;;5.03;;
16878;SDS011;8556;52.218;9.884;2023-08-06T04:57:42;8.75;;;5.18;;
16878;SDS011;8556;52.218;9.884;2023-08-06T05:00:09;8.15;;;4.80;;
16878;SDS011;8556;52.218;9.884;2023-08-06T05:02:37;9.25;;;5.55;;
16878;SDS011;8556;52.218;9.884;2023-08-06T05:05:04;13.80;;;5.65;;
16878;SDS011;8556;52.218;9.884;2023-08-06T05:07:31;13.10;;;5.65;;
16878;SDS011;8556;52.218;9.884;2023-08-06T05:10:00;12.23;;;5.40;;
16878;SDS011;8556;52.218;9.884;2023-08-06T05:12:28;10.82;;;5.35;;
16878;SDS011;8556;52.218;9.884;2023-08-06T05:14:55;10.98;;;5.25;;
16878;SDS011;8556;52.218;9.884;2023-08-06T05:17:22;7.50;;;4.93;;
16878;SDS011;8556;52.218;9.884;2023-08-06T05:19:50;9.13;;;6.00;;
16878;SDS011;8556;52.218;9.884;2023-08-06T05:22:17;9.38;;;5.43;;
16878;SDS011;8556;52.218;9.884;2023-08-06T05:24:44;10.10;;;5.40;;
16878;SDS011;8556;52.218;9.884;2023-08-06T05:27:11;9.40;;;5.80;;
16878;SDS011;8556;52.218;9.884;2023-08-06T05:29:38;8.23;;;5.47;;
16878;SDS011;8556;52.218;9.884;2023-08-06T05:32:05;9.55;;;5.28;;
16878;SDS011;8556;52.218;9.884;2023-08-06T05:34:32;8.18;;;5.18;;
16878;SDS011;8556;52.218;9.884;2023-08-06T05:37:00;10.63;;;5.13;;
16878;SDS011;8556;52.218;9.884;2023-08-06T05:39:27;7.88;;;5.50;;
16878;SDS011;8556;52.218;9.884;2023-08-06T05:41:54;8.05;;;4.97;;
16878;SDS011;8556;52.218;9.884;2023-08-06T05:44:21;10.02;;;5.10;;
16878;SDS011;8556;52.218;9.884;2023-08-06T05:46:49;9.50;;;5.18;;
16878;SDS011;8556;52.218;9.884;2023-08-06T05:49:16;10.63;;;5.13;;
16878;SDS011;8556;52.218;9.884;2023-08-06T05:51:43;8.23;;;5.15;;
16878;SDS011;8556;52.218;9.884;2023-08-06T05:54:11;9.32;;;5.32;;
16878;SDS011;8556;52.218;9.884;2023-08-06T05:56:38;6.53;;;4.43;;
16878;SDS011;8556;52.218;9.884;2023-08-06T05:59:05;8.63;;;5.00;;
16878;SDS011;8556;52.218;9.884;2023-08-06T06:01:32;6.93;;;4.88;;
16878;SDS011;8556;52.218;9.884;2023-08-06T06:03:59;12.32;;;5.57;;
16878;SDS011;8556;52.218;9.884;2023-08-06T06:06:25;6.53;;;4.53;;
16878;SDS011;8556;52.218;9.884;2023-08-06T06:08:52;6.65;;;4.20;;
16878;SDS011;8556;52.218;9.884;2023-08-06T06:11:20;6.75;;;4.85;;
16878;SDS011;8556;52.218;9.884;2023-08-06T06:13:48;10.07;;;4.03;;
16878;SDS011;8556;52.218;9.884;2023-08-06T06:16:15;6.60;;;3.97;;
16878;SDS011;8556;52.218;9.884;2023-08-06T06:18:42;5.80;;;4.50;;
16878;SDS011;8556;52.218;9.884;2023-08-06T06:21:09;8.57;;;3.97;;
16878;SDS011;8556;52.218;9.884;2023-08-06T06:23:36;9.05;;;4.30;;
16878;SDS011;8556;52.218;9.884;2023-08-06T06:26:03;6.50;;;4.25;;
16878;SDS011;8556;52.218;9.884;2023-08-06T06:28:31;6.13;;;4.20;;
16878;SDS011;8556;52.218;9.884;2023-08-06T06:30:59;5.60;;;4.03;;
16878;SDS011;8556;52.218;9.884;2023-08-06T06:33:27;6.05;;;4.22;;
16878;SDS011;8556;52.218;9.884;2023-08-06T06:35:53;8.52;;;4.03;;
16878;SDS011;8556;52.218;9.884;2023-08-06T06:38:20;8.50;;;4.10;;
16878;SDS011;8556;52.218;9.884;2023-08-06T06:40:53;5.30;;;3.80;;
16878;SDS011;8556;52.218;9.884;2023-08-06T06:43:20;4.80;;;4.20;;
16878;SDS011;8556;52.218;9.884;2023-08-06T06:45:51;6.10;;;4.60;;
16878;SDS011;8556;52.218;9.884;2023-08-06T06:48:18;6.97;;;4.43;;
16878;SDS011;8556;52.218;9.884;2023-08-06T06:50:46;4.53;;;4.05;;
16878;SDS011;8556;52.218;9.884;2023-08-06T06:53:13;7.18;;;4.43;;
16878;SDS011;8556;52.218;9.884;2023-08-06T06:55:40;4.57;;;3.80;;
16878;SDS011;8556;52.218;9.884;2023-08-06T06:58:07;4.38;;;3.95;;
16878;SDS011;8556;52.218;9.884;2023-08-06T07:00:35;6.68;;;4.00;;
16878;SDS011;8556;52.218;9.884;2023-08-06T07:03:03;5.45;;;4.10;;
16878;SDS011;8556;52.218;9.884;2023-08-06T07:05:30;4.03;;;3.63;;
16878;SDS011;8556;52.218;9.884;2023-08-06T07:07:57;3.88;;;3.47;;
16878;SDS011;8556;52.218;9.884;2023-08-06T07:10:23;5.03;;;3.60;;
16878;SDS011;8556;52.218;9.884;2023-08-06T07:12:52;5.60;;;3.40;;
16878;SDS011;8556;52.218;9.884;2023-08-06T07:15:19;6.82;;;3.25;;
16878;SDS011;8556;52.218;9.884;2023-08-06T07:17:46;6.32;;;3.65;;
16878;SDS011;8556;52.218;9.884;2023-08-06T07:20:14;5.25;;;3.25;;
16878;SDS011;8556;52.218;9.884;2023-08-06T07:22:41;6.95;;;3.22;;
16878;SDS011;8556;52.218;9.884;2023-08-06T07:25:08;4.50;;;3.35;;
16878;SDS011;8556;52.218;9.884;2023-08-06T07:27:35;4.40;;;2.97;;
16878;SDS011;8556;52.218;9.884;2023-08-06T07:30:01;4.88;;;2.60;;
16878;SDS011;8556;52.218;9.884;2023-08-06T07:32:30;3.20;;;2.90;;
16878;SDS011;8556;52.218;9.884;2023-08-06T07:34:57;3.33;;;2.80;;
16878;SDS011;8556;52.218;9.884;2023-08-06T07:37:27;4.57;;;3.00;;
16878;SDS011;8556;52.218;9.884;2023-08-06T07:39:54;4.28;;;2.97;;
16878;SDS011;8556;52.218;9.884;2023-08-06T07:42:21;3.10;;;2.53;;
16878;SDS011;8556;52.218;9.884;2023-08-06T07:44:50;3.10;;;2.90;;
16878;SDS011;8556;52.218;9.884;2023-08-06T07:47:18;3.15;;;2.67;;
16878;SDS011;8556;52.218;9.884;2023-08-06T07:49:45;4.30;;;2.80;;
16878;SDS011;8556;52.218;9.884;2023-08-06T07:52:11;5.07;;;2.80;;
16878;SDS011;8556;52.218;9.884;2023-08-06T07:54:40;3.45;;;2.97;;
16878;SDS011;8556;52.218;9.884;2023-08-06T07:57:07;3.58;;;3.25;;
16878;SDS011;8556;52.218;9.884;2023-08-06T07:59:34;3.38;;;3.08;;
16878;SDS011;8556;52.218;9.884;2023-08-06T08:02:01;3.10;;;2.80;;
16878;SDS011;8556;52.218;9.884;2023-08-06T08:04:27;3.92;;;3.13;;
16878;SDS011;8556;52.218;9.884;2023-08-06T08:06:54;3.50;;;3.13;;
16878;SDS011;8556;52.218;9.884;2023-08-06T08:09:21;3.58;;;3.17;;
16878;SDS011;8556;52.218;9.884;2023-08-06T08:11:49;3.33;;;3.03;;
16878;SDS011;8556;52.218;9.884;2023-08-06T08:14:17;5.60;;;3.05;;
16878;SDS011;8556;52.218;9.884;2023-08-06T08:16:44;4.78;;;3.47;;
16878;SDS011;8556;52.218;9.884;2023-08-06T08:19:11;3.58;;;3.08;;
16878;SDS011;8556;52.218;9.884;2023-08-06T08:21:38;2.75;;;2.55;;
16878;SDS011;8556;52.218;9.884;2023-08-06T08:24:05;3.20;;;2.70;;
16878;SDS011;8556;52.218;9.884;2023-08-06T08:26:32;3.50;;;2.90;;
16878;SDS011;8556;52.218;9.884;2023-08-06T08:29:00;4.90;;;2.78;;
16878;SDS011;8556;52.218;9.884;2023-08-06T08:31:27;3.05;;;2.80;;
16878;SDS011;8556;52.218;9.884;2023-08-06T08:33:54;5.82;;;3.00;;
16878;SDS011;8556;52.218;9.884;2023-08-06T08:36:21;4.68;;;3.25;;
16878;SDS011;8556;52.218;9.884;2023-08-06T08:38:48;4.65;;;3.38;;
16878;SDS011;8556;52.218;9.884;2023-08-06T08:41:18;7.18;;;3.70;;
16878;SDS011;8556;52.218;9.884;2023-08-06T08:43:46;4.53;;;2.83;;
16878;SDS011;8556;52.218;9.884;2023-08-06T08:46:20;6.22;;;3.05;;
16878;SDS011;8556;52.218;9.884;2023-08-06T08:48:47;3.05;;;2.85;;
16878;SDS011;8556;52.218;9.884;2023-08-06T08:51:15;3.33;;;3.03;;
16878;SDS011;8556;52.218;9.884;2023-08-06T08:53:43;4.20;;;3.47;;
16878;SDS011;8556;52.218;9.884;2023-08-06T08:56:11;3.28;;;2.70;;
16878;SDS011;8556;52.218;9.884;2023-08-06T08:58:39;4.75;;;2.70;;
16878;SDS011;8556;52.218;9.884;2023-08-06T09:01:07;6.47;;;3.38;;
16878;SDS011;8556;52.218;9.884;2023-08-06T09:03:36;4.82;;;2.97;;
16878;SDS011;8556;52.218;9.884;2023-08-06T09:06:03;4.30;;;2.85;;
16878;SDS011;8556;52.218;9.884;2023-08-06T09:08:33;3.60;;;2.67;;
16878;SDS011;8556;52.218;9.884;2023-08-06T09:11:03;4.80;;;3.08;;
16878;SDS011;8556;52.218;9.884;2023-08-06T09:13:31;3.13;;;2.90;;
16878;SDS011;8556;52.218;9.884;2023-08-06T09:15:58;3.28;;;3.00;;
16878;SDS011;8556;52.218;9.884;2023-08-06T09:18:25;3.75;;;2.78;;
16878;SDS011;8556;52.218;9.884;2023-08-06T09:20:54;3.90;;;3.05;;
16878;SDS011;8556;52.218;9.884;2023-08-06T09:23:22;3.30;;;2.75;;
16878;SDS011;8556;52.218;9.884;2023-08-06T09:25:54;3.60;;;3.30;;
16878;SDS011;8556;52.218;9.884;2023-08-06T09:28:21;3.47;;;3.15;;
16878;SDS011;8556;52.218;9.884;2023-08-06T09:30:49;3.10;;;2.80;;
16878;SDS011;8556;52.218;9.884;2023-08-06T09:33:17;2.97;;;2.70;;
16878;SDS011;8556;52.218;9.884;2023-08-06T09:35:45;3.75;;;2.72;;
16878;SDS011;8556;52.218;9.884;2023-08-06T09:38:14;3.78;;;2.67;;
16878;SDS011;8556;52.218;9.884;2023-08-06T09:40:40;4.47;;;2.80;;
16878;SDS011;8556;52.218;9.884;2023-08-06T09:43:07;3.63;;;3.22;;
16878;SDS011;8556;52.218;9.884;2023-08-06T09:45:35;3.75;;;3.10;;
16878;SDS011;8556;52.218;9.884;2023-08-06T09:48:03;4.28;;;2.35;;
16878;SDS011;8556;52.218;9.884;2023-08-06T09:50:31;5.00;;;2.30;;
16878;SDS011;8556;52.218;9.884;2023-08-06T09:52:59;3.13;;;2.35;;
16878;SDS011;8556;52.218;9.884;2023-08-06T09:55:28;2.50;;;2.30;;
16878;SDS011;8556;52.218;9.884;2023-08-06T09:57:55;3.72;;;2.25;;
16878;SDS011;8556;52.218;9.884;2023-08-06T10:00:23;2.83;;;2.20;;
16878;SDS011;8556;52.218;9.884;2023-08-06T10:02:51;2.90;;;2.20;;
16878;SDS011;8556;52.218;9.884;2023-08-06T10:05:21;2.63;;;2.38;;
16878;SDS011;8556;52.218;9.884;2023-08-06T10:07:48;3.05;;;2.38;;
16878;SDS011;8556;52.218;9.884;2023-08-06T10:10:16;2.85;;;2.60;;
16878;SDS011;8556;52.218;9.884;2023-08-06T10:12:46;3.03;;;2.55;;
16878;SDS011;8556;52.218;9.884;2023-08-06T10:15:17;3.75;;;2.55;;
16878;SDS011;8556;52.218;9.884;2023-08-06T10:17:48;2.80;;;2.60;;
16878;SDS011;8556;52.218;9.884;2023-08-06T10:20:19;3.38;;;2.50;;
16878;SDS011;8556;52.218;9.884;2023-08-06T10:22:54;2.75;;;2.30;;
16878;SDS011;8556;52.218;9.884;2023-08-06T10:25:26;2.60;;;2.40;;
16878;SDS011;8556;52.218;9.884;2023-08-06T10:27:59;2.90;;;2.20;;
16878;SDS011;8556;52.218;9.884;2023-08-06T10:30:26;2.40;;;2.20;;
16878;SDS011;8556;52.218;9.884;2023-08-06T10:32:54;3.30;;;2.33;;
16878;SDS011;8556;52.218;9.884;2023-08-06T10:35:28;3.10;;;2.40;;
16878;SDS011;8556;52.218;9.884;2023-08-06T10:38:02;4.72;;;2.35;;
16878;SDS011;8556;52.218;9.884;2023-08-06T10:40:30;3.35;;;2.45;;
16878;SDS011;8556;52.218;9.884;2023-08-06T10:42:59;2.60;;;2.10;;
16878;SDS011;8556;52.218;9.884;2023-08-06T10:45:26;3.22;;;2.20;;
16878;SDS011;8556;52.218;9.884;2023-08-06T10:47:55;2.20;;;2.10;;
16878;SDS011;8556;52.218;9.884;2023-08-06T10:50:23;3.00;;;2.15;;
16878;SDS011;8556;52.218;9.884;2023-08-06T10:52:51;2.50;;;2.30;;
16878;SDS011;8556;52.218;9.884;2023-08-06T10:55:25;1.98;;;1.88;;
16878;SDS011;8556;52.218;9.884;2023-08-06T10:57:53;2.58;;;2.03;;
16878;SDS011;8556;52.218;9.884;2023-08-06T11:00:22;5.55;;;2.25;;
16878;SDS011;8556;52.218;9.884;2023-08-06T11:02:52;2.47;;;2.28;;
16878;SDS011;8556;52.218;9.884;2023-08-06T11:05:19;2.53;;;2.30;;
16878;SDS011;8556;52.218;9.884;2023-08-06T11:07:47;3.72;;;1.90;;
16878;SDS011;8556;52.218;9.884;2023-08-06T11:10:14;2.40;;;2.05;;
16878;SDS011;8556;52.218;9.884;2023-08-06T11:12:41;3.70;;;2.10;;
16878;SDS011;8556;52.218;9.884;2023-08-06T11:15:08;3.13;;;1.88;;
16878;SDS011;8556;52.218;9.884;2023-08-06T11:17:40;2.22;;;2.03;;
16878;SDS011;8556;52.218;9.884;2023-08-06T11:20:08;2.08;;;1.92;;
16878;SDS011;8556;52.218;9.884;2023-08-06T11:22:35;3.13;;;1.67;;
16878;SDS011;8556;52.218;9.884;2023-08-06T11:25:04;2.58;;;2.13;;
16878;SDS011;8556;52.218;9.884;2023-08-06T11:27:32;2.30;;;2.10;;
16878;SDS011;8556;52.218;9.884;2023-08-06T11:29:59;5.00;;;2.50;;
16878;SDS011;8556;52.218;9.884;2023-08-06T11:32:25;5.05;;;1.77;;
16878;SDS011;8556;52.218;9.884;2023-08-06T11:34:54;2.03;;;1.92;;
16878;SDS011;8556;52.218;9.884;2023-08-06T11:37:22;2.22;;;2.03;;
16878;SDS011;8556;52.218;9.884;2023-08-06T11:39:50;3.17;;;1.80;;
16878;SDS011;8556;52.218;9.884;2023-08-06T11:42:17;3.38;;;2.08;;
16878;SDS011;8556;52.218;9.884;2023-08-06T11:44:44;2.35;;;1.92;;
16878;SDS011;8556;52.218;9.884;2023-08-06T11:47:12;5.78;;;2.30;;
16878;SDS011;8556;52.218;9.884;2023-08-06T11:49:41;3.10;;;1.90;;
16878;SDS011;8556;52.218;9.884;2023-08-06T11:52:13;3.08;;;1.80;;
16878;SDS011;8556;52.218;9.884;2023-08-06T11:54:41;1.95;;;1.85;;
16878;SDS011;8556;52.218;9.884;2023-08-06T11:57:08;2.30;;;1.67;;
16878;SDS011;8556;52.218;9.884;2023-08-06T11:59:35;3.92;;;2.03;;
16878;SDS011;8556;52.218;9.884;2023-08-06T12:02:03;2.28;;;2.08;;
16878;SDS011;8556;52.218;9.884;2023-08-06T12:04:31;3.15;;;2.03;;
16878;SDS011;8556;52.218;9.884;2023-08-06T12:07:18;2.00;;;1.90;;
16878;SDS011;8556;52.218;9.884;2023-08-06T12:09:45;2.67;;;1.92;;
16878;SDS011;8556;52.218;9.884;2023-08-06T12:12:11;2.20;;;2.00;;
16878;SDS011;8556;52.218;9.884;2023-08-06T12:14:38;2.53;;;2.15;;
16878;SDS011;8556;52.218;9.884;2023-08-06T12:17:05;2.20;;;2.00;;
16878;SDS011;8556;52.218;9.884;2023-08-06T12:19:32;2.75;;;2.20;;
16878;SDS011;8556;52.218;9.884;2023-08-06T12:21:58;2.15;;;1.70;;
16878;SDS011;8556;52.218;9.884;2023-08-06T12:24:27;1.73;;;1.63;;
16878;SDS011;8556;52.218;9.884;2023-08-06T12:26:56;3.28;;;2.13;;
16878;SDS011;8556;52.218;9.884;2023-08-06T12:29:27;2.67;;;2.15;;
16878;SDS011;8556;52.218;9.884;2023-08-06T12:31:54;2.42;;;2.08;;
16878;SDS011;8556;52.218;9.884;2023-08-06T12:34:21;1.95;;;1.75;;
16878;SDS011;8556;52.218;9.884;2023-08-06T12:36:49;2.70;;;1.83;;
16878;SDS011;8556;52.218;9.884;2023-08-06T12:39:16;2.33;;;2.13;;
16878;SDS011;8556;52.218;9.884;2023-08-06T12:41:44;1.98;;;1.63;;
16878;SDS011;8556;52.218;9.884;2023-08-06T12:44:11;2.00;;;1.90;;
16878;SDS011;8556;52.218;9.884;2023-08-06T12:46:37;2.33;;;2.13;;
16878;SDS011;8556;52.218;9.884;2023-08-06T12:49:04;2.40;;;2.20;;
16878;SDS011;8556;52.218;9.884;2023-08-06T12:51:31;3.17;;;2.20;;
16878;SDS011;8556;52.218;9.884;2023-08-06T12:53:59;2.00;;;1.90;;
16878;SDS011;8556;52.218;9.884;2023-08-06T12:56:26;4.90;;;2.50;;
16878;SDS011;8556;52.218;9.884;2023-08-06T12:58:55;2.83;;;2.58;;
16878;SDS011;8556;52.218;9.884;2023-08-06T13:01:22;2.88;;;2.63;;
16878;SDS011;8556;52.218;9.884;2023-08-06T13:03:49;2.60;;;2.40;;
16878;SDS011;8556;52.218;9.884;2023-08-06T13:06:15;2.00;;;1.90;;
16878;SDS011;8556;52.218;9.884;2023-08-06T13:08:42;4.03;;;2.55;;
16878;SDS011;8556;52.218;9.884;2023-08-06T13:11:09;3.92;;;2.65;;
16878;SDS011;8556;52.218;9.884;2023-08-06T13:13:36;2.83;;;2.30;;
16878;SDS011;8556;52.218;9.884;2023-08-06T13:16:04;3.47;;;2.80;;
16878;SDS011;8556;52.218;9.884;2023-08-06T13:18:31;6.43;;;2.60;;
16878;SDS011;8556;52.218;9.884;2023-08-06T13:20:58;2.80;;;2.60;;
16878;SDS011;8556;52.218;9.884;2023-08-06T13:23:24;3.10;;;2.25;;
16878;SDS011;8556;52.218;9.884;2023-08-06T13:25:51;2.65;;;2.45;;
16878;SDS011;8556;52.218;9.884;2023-08-06T13:28:20;2.80;;;2.60;;
16878;SDS011;8556;52.218;9.884;2023-08-06T13:30:47;2.85;;;2.65;;
16878;SDS011;8556;52.218;9.884;2023-08-06T13:33:15;4.07;;;3.25;;
16878;SDS011;8556;52.218;9.884;2023-08-06T13:35:42;3.15;;;2.60;;
16878;SDS011;8556;52.218;9.884;2023-08-06T13:38:09;3.47;;;2.50;;
16878;SDS011;8556;52.218;9.884;2023-08-06T13:40:35;2.95;;;2.72;;
16878;SDS011;8556;52.218;9.884;2023-08-06T13:43:02;3.03;;;2.60;;
16878;SDS011;8556;52.218;9.884;2023-08-06T13:45:29;3.33;;;2.70;;
16878;SDS011;8556;52.218;9.884;2023-08-06T13:47:57;2.97;;;2.67;;
16878;SDS011;8556;52.218;9.884;2023-08-06T13:50:25;2.88;;;2.63;;
16878;SDS011;8556;52.218;9.884;2023-08-06T13:52:52;2.90;;;2.60;;
16878;SDS011;8556;52.218;9.884;2023-08-06T13:55:20;3.28;;;2.95;;
16878;SDS011;8556;52.218;9.884;2023-08-06T13:57:47;3.13;;;2.67;;
16878;SDS011;8556;52.218;9.884;2023-08-06T14:00:14;2.53;;;2.33;;
16878;SDS011;8556;52.218;9.884;2023-08-06T14:02:42;3.03;;;2.72;;
16878;SDS011;8556;52.218;9.884;2023-08-06T14:05:10;2.70;;;2.50;;
16878;SDS011;8556;52.218;9.884;2023-08-06T14:07:38;3.72;;;2.95;;
16878;SDS011;8556;52.218;9.884;2023-08-06T14:10:05;3.25;;;2.95;;
16878;SDS011;8556;52.218;9.884;2023-08-06T14:12:34;3.30;;;2.80;;
16878;SDS011;8556;52.218;9.884;2023-08-06T14:17:44;2.75;;;2.55;;
16878;SDS011;8556;52.218;9.884;2023-08-06T14:20:11;3.03;;;2.63;;
16878;SDS011;8556;52.218;9.884;2023-08-06T14:22:39;5.82;;;2.92;;
16878;SDS011;8556;52.218;9.884;2023-08-06T14:25:06;3.33;;;2.30;;
16878;SDS011;8556;52.218;9.884;2023-08-06T14:27:33;4.68;;;2.88;;
16878;SDS011;8556;52.218;9.884;2023-08-06T14:30:00;3.08;;;2.80;;
16878;SDS011;8556;52.218;9.884;2023-08-06T14:32:28;2.70;;;2.50;;
16878;SDS011;8556;52.218;9.884;2023-08-06T14:34:55;3.78;;;2.65;;
16878;SDS011;8556;52.218;9.884;2023-08-06T14:37:22;2.92;;;2.67;;
16878;SDS011;8556;52.218;9.884;2023-08-06T14:39:50;3.55;;;2.58;;
16878;SDS011;8556;52.218;9.884;2023-08-06T14:42:17;3.28;;;2.97;;
16878;SDS011;8556;52.218;9.884;2023-08-06T14:44:44;3.45;;;3.08;;
16878;SDS011;8556;52.218;9.884;2023-08-06T14:47:11;3.47;;;2.40;;
16878;SDS011;8556;52.218;9.884;2023-08-06T14:49:38;3.33;;;3.03;;
16878;SDS011;8556;52.218;9.884;2023-08-06T14:52:05;3.10;;;2.70;;
16878;SDS011;8556;52.218;9.884;2023-08-06T14:54:33;4.43;;;2.80;;
16878;SDS011;8556;52.218;9.884;2023-08-06T14:57:02;5.47;;;3.40;;
16878;SDS011;8556;52.218;9.884;2023-08-06T14:59:29;3.83;;;2.90;;
16878;SDS011;8556;52.218;9.884;2023-08-06T15:01:56;2.80;;;2.60;;
16878;SDS011;8556;52.218;9.884;2023-08-06T15:04:23;3.20;;;2.90;;
16878;SDS011;8556;52.218;9.884;2023-08-06T15:06:49;2.90;;;2.70;;